Time;durP1;ratioP1;P1;durP2;ratioP2;P2;SDS_P1;SDS_P2;PMS_P1;PMS_P2;Temp;Humidity;BMP_temperature;BMP_pressure;BME280_temperature;BME280_humidity;BME280_pressure;Samples;Min_cycle;Max_cycle;Signal;HPM_P1;HPM_P2
2022/07/10 00:02:25;;;;;;;0.70;0.60;;;;;;;;;;5039766;28;20201;-63
2022/07/10 00:04:55;;;;;;;2.63;1.10;;;;;;;;;;5044088;28;20262;-63
2022/07/10 00:07:29;;;;;;;1.00;0.67;;;;;;;;;;5021295;28;20217;-63
2022/07/10 00:10:03;;;;;;;1.13;0.63;;;;;;;;;;5033241;28;20195;-63
2022/07/10 00:12:33;;;;;;;0.70;0.60;;;;;;;;;;5004079;28;20601;-63
2022/07/10 00:15:04;;;;;;;0.90;0.83;;;;;;;;;;5026761;28;20211;-63
2022/07/10 00:17:38;;;;;;;1.07;0.60;;;;;;;;;;5030090;28;20548;-63
2022/07/10 00:20:11;;;;;;;0.93;0.83;;;;;;;;;;5032915;28;20198;-64
2022/07/10 00:22:44;;;;;;;1.30;0.73;;;;;;;;;;5029756;28;20206;-63
2022/07/10 00:25:17;;;;;;;0.87;0.70;;;;;;;;;;5040405;28;20667;-63
2022/07/10 00:27:48;;;;;;;0.50;0.50;;;;;;;;;;5032121;28;20218;-64
2022/07/10 00:30:19;;;;;;;1.57;0.80;;;;;;;;;;5038393;28;20194;-64
2022/07/10 00:32:50;;;;;;;0.70;0.70;;;;;;;;;;5000691;28;20198;-63
2022/07/10 00:35:23;;;;;;;1.13;0.70;;;;;;;;;;5032577;28;20207;-63
2022/07/10 00:37:52;;;;;;;0.90;0.80;;;;;;;;;;5030011;28;20217;-63
2022/07/10 00:40:23;;;;;;;1.80;0.80;;;;;;;;;;5025972;28;20735;-64
2022/07/10 00:42:56;;;;;;;0.87;0.77;;;;;;;;;;5030401;28;20699;-63
2022/07/10 00:45:27;;;;;;;1.83;0.70;;;;;;;;;;5020180;28;20196;-63
2022/07/10 00:47:57;;;;;;;1.20;0.80;;;;;;;;;;5026758;28;20218;-63
2022/07/10 00:50:28;;;;;;;1.13;0.80;;;;;;;;;;5042964;28;20194;-63
2022/07/10 00:52:57;;;;;;;0.90;0.87;;;;;;;;;;5022051;28;20186;-63
2022/07/10 00:55:38;;;;;;;1.23;0.70;;;;;;;;;;5011350;28;20947;-63
2022/07/10 00:58:11;;;;;;;0.80;0.73;;;;;;;;;;5032279;28;20253;-63
2022/07/10 01:00:40;;;;;;;1.27;0.80;;;;;;;;;;5039946;28;20217;-63
2022/07/10 01:03:09;;;;;;;1.80;0.87;;;;;;;;;;5014728;28;20309;-63
2022/07/10 01:05:37;;;;;;;0.90;0.70;;;;;;;;;;5030354;28;20206;-63
2022/07/10 01:08:09;;;;;;;0.97;0.73;;;;;;;;;;5036162;28;20217;-63
2022/07/10 01:10:40;;;;;;;1.10;0.77;;;;;;;;;;5015133;28;20735;-63
2022/07/10 01:13:11;;;;;;;3.17;0.90;;;;;;;;;;5036164;28;20201;-63
2022/07/10 01:15:43;;;;;;;1.00;0.90;;;;;;;;;;5032022;28;20195;-64
2022/07/10 01:18:22;;;;;;;0.93;0.60;;;;;;;;;;5032865;28;20207;-64
2022/07/10 01:20:57;;;;;;;0.80;0.80;;;;;;;;;;5030605;28;20207;-64
2022/07/10 01:23:29;;;;;;;1.87;0.97;;;;;;;;;;5016477;28;20207;-64
2022/07/10 01:26:02;;;;;;;0.83;0.70;;;;;;;;;;5029317;28;20213;-64
2022/07/10 01:28:33;;;;;;;1.50;0.83;;;;;;;;;;5027463;28;20227;-64
2022/07/10 01:31:02;;;;;;;1.00;0.80;;;;;;;;;;5037821;28;20269;-64
2022/07/10 01:33:33;;;;;;;0.90;0.73;;;;;;;;;;5025467;28;20195;-64
2022/07/10 01:36:03;;;;;;;1.07;0.80;;;;;;;;;;5030858;28;20199;-63
2022/07/10 01:38:38;;;;;;;1.30;0.93;;;;;;;;;;5006428;28;20209;-62
2022/07/10 01:41:08;;;;;;;1.03;0.93;;;;;;;;;;5036460;28;20214;-62
2022/07/10 01:43:45;;;;;;;1.57;0.90;;;;;;;;;;5022171;28;20241;-62
2022/07/10 01:46:21;;;;;;;1.03;0.80;;;;;;;;;;5039691;28;20734;-62
2022/07/10 01:48:51;;;;;;;0.90;0.73;;;;;;;;;;5039241;28;20203;-62
2022/07/10 01:51:20;;;;;;;1.03;0.90;;;;;;;;;;5010964;28;20207;-62
2022/07/10 01:53:49;;;;;;;1.30;0.80;;;;;;;;;;5037473;28;20195;-62
2022/07/10 01:56:32;;;;;;;1.33;0.70;;;;;;;;;;5036835;28;20270;-62
2022/07/10 01:59:03;;;;;;;1.63;0.93;;;;;;;;;;5033363;28;20226;-62
2022/07/10 02:01:33;;;;;;;0.97;0.90;;;;;;;;;;5028480;28;20285;-62
2022/07/10 02:06:58;;;;;;;1.17;1.07;;;;;;;;;;5025766;28;20213;-63
2022/07/10 02:09:30;;;;;;;0.90;0.80;;;;;;;;;;5027848;28;20671;-63
2022/07/10 02:12:08;;;;;;;1.20;0.90;;;;;;;;;;5030870;28;20222;-62
2022/07/10 02:14:39;;;;;;;1.20;0.70;;;;;;;;;;5037383;28;20285;-63
2022/07/10 02:17:15;;;;;;;2.37;0.67;;;;;;;;;;5029824;28;20644;-63
2022/07/10 02:19:49;;;;;;;1.00;0.80;;;;;;;;;;5035057;28;20217;-63
2022/07/10 02:22:19;;;;;;;0.80;0.60;;;;;;;;;;5037662;28;20268;-63
2022/07/10 02:24:50;;;;;;;1.00;0.90;;;;;;;;;;5015301;28;20199;-62
2022/07/10 02:27:34;;;;;;;1.60;0.77;;;;;;;;;;5036441;28;20194;-62
2022/07/10 02:30:07;;;;;;;1.27;0.90;;;;;;;;;;5045576;28;20198;-62
2022/07/10 02:32:39;;;;;;;1.47;0.80;;;;;;;;;;5010835;28;20265;-63
2022/07/10 02:35:07;;;;;;;0.80;0.50;;;;;;;;;;5012788;28;20203;-62
2022/07/10 02:37:39;;;;;;;1.37;0.80;;;;;;;;;;5036688;28;20852;-63
2022/07/10 02:40:09;;;;;;;0.90;0.80;;;;;;;;;;5036056;28;20197;-62
2022/07/10 02:42:41;;;;;;;0.97;0.73;;;;;;;;;;5033548;28;20246;-62
2022/07/10 02:45:12;;;;;;;1.00;0.70;;;;;;;;;;5041222;28;20205;-63
2022/07/10 02:47:45;;;;;;;0.80;0.60;;;;;;;;;;5032440;28;20199;-62
2022/07/10 02:50:16;;;;;;;0.80;0.70;;;;;;;;;;5032846;28;20230;-65
2022/07/10 02:52:46;;;;;;;1.10;0.70;;;;;;;;;;5027342;28;20203;-62
2022/07/10 02:55:15;;;;;;;1.27;0.77;;;;;;;;;;5029395;28;20202;-62
2022/07/10 02:57:46;;;;;;;0.73;0.73;;;;;;;;;;5025218;28;20726;-62
2022/07/10 03:00:16;;;;;;;0.90;0.70;;;;;;;;;;5033488;28;20210;-64
2022/07/10 03:02:44;;;;;;;1.37;0.80;;;;;;;;;;5032351;28;20202;-64
2022/07/10 03:05:18;;;;;;;0.70;0.70;;;;;;;;;;5029918;28;20358;-64
2022/07/10 03:07:50;;;;;;;1.07;0.57;;;;;;;;;;5037232;28;20206;-64
2022/07/10 03:10:24;;;;;;;0.63;0.60;;;;;;;;;;5013668;28;20222;-64
2022/07/10 03:12:53;;;;;;;1.23;0.73;;;;;;;;;;5043074;28;20533;-64
2022/07/10 03:15:24;;;;;;;1.10;0.60;;;;;;;;;;5027512;28;20218;-64
2022/07/10 03:18:22;;;;;;;0.80;0.80;;;;;;;;;;5026845;28;20195;-64
2022/07/10 03:20:55;;;;;;;0.93;0.67;;;;;;;;;;5041516;28;20209;-64
2022/07/10 03:23:30;;;;;;;0.80;0.60;;;;;;;;;;5023671;28;20209;-64
2022/07/10 03:26:02;;;;;;;1.60;1.00;;;;;;;;;;5039068;28;20208;-64
2022/07/10 03:28:33;;;;;;;1.10;0.80;;;;;;;;;;5034516;28;20198;-64
2022/07/10 03:31:04;;;;;;;0.50;0.50;;;;;;;;;;5033438;28;20204;-63
2022/07/10 03:33:35;;;;;;;1.57;0.80;;;;;;;;;;5030366;28;20214;-64
2022/07/10 03:36:05;;;;;;;0.63;0.60;;;;;;;;;;5037582;28;20206;-64
2022/07/10 03:38:35;;;;;;;1.23;0.90;;;;;;;;;;5038734;28;20204;-64
2022/07/10 03:41:06;;;;;;;1.37;0.67;;;;;;;;;;5040434;28;20209;-64
2022/07/10 03:43:34;;;;;;;0.97;0.83;;;;;;;;;;5008378;28;20753;-64
2022/07/10 03:46:04;;;;;;;0.77;0.57;;;;;;;;;;5037428;28;20245;-64
2022/07/10 03:48:38;;;;;;;1.03;0.70;;;;;;;;;;5040121;28;20205;-64
2022/07/10 03:51:08;;;;;;;1.03;0.80;;;;;;;;;;5027236;28;20616;-63
2022/07/10 03:53:38;;;;;;;1.33;0.80;;;;;;;;;;5029986;28;20628;-64
2022/07/10 03:57:53;;;;;;;0.97;0.77;;;;;;;;;;5030200;28;20245;-64
2022/07/10 03:59:02;;;;;;;1.63;0.90;;;;;;;;;;5020209;28;20249;-63
2022/07/10 04:01:37;;;;;;;2.70;0.50;;;;;;;;;;5027229;28;20256;-66
2022/07/10 04:04:09;;;;;;;1.23;0.60;;;;;;;;;;5027207;28;20277;-66
2022/07/10 04:06:38;;;;;;;1.50;0.67;;;;;;;;;;5036530;28;20621;-65
2022/07/10 04:09:09;;;;;;;1.00;0.70;;;;;;;;;;5032734;28;20210;-66
2022/07/10 04:11:52;;;;;;;0.93;0.60;;;;;;;;;;5021645;28;20660;-66
2022/07/10 04:14:20;;;;;;;0.80;0.80;;;;;;;;;;5031243;28;20202;-66
2022/07/10 04:16:52;;;;;;;1.90;0.90;;;;;;;;;;5009042;28;20290;-66
2022/07/10 04:19:23;;;;;;;2.50;0.90;;;;;;;;;;5023412;28;20198;-66
2022/07/10 04:21:56;;;;;;;1.97;0.60;;;;;;;;;;5024493;28;20233;-65
2022/07/10 04:24:23;;;;;;;1.67;0.70;;;;;;;;;;5030006;28;20214;-66
2022/07/10 04:26:54;;;;;;;1.13;0.80;;;;;;;;;;5034083;28;20237;-66
2022/07/10 04:29:27;;;;;;;0.87;0.63;;;;;;;;;;5028740;28;20218;-66
2022/07/10 04:31:57;;;;;;;1.17;0.93;;;;;;;;;;5030915;28;20236;-63
2022/07/10 04:34:28;;;;;;;1.40;0.73;;;;;;;;;;5026355;28;20215;-63
2022/07/10 04:37:00;;;;;;;1.37;0.90;;;;;;;;;;5027321;28;20195;-63
2022/07/10 04:39:33;;;;;;;1.20;0.80;;;;;;;;;;5006976;28;20199;-63
2022/07/10 04:42:03;;;;;;;0.90;0.80;;;;;;;;;;5032244;28;20205;-63
2022/07/10 04:44:40;;;;;;;1.40;0.70;;;;;;;;;;5038235;28;20199;-63
2022/07/10 04:47:18;;;;;;;1.30;0.80;;;;;;;;;;5012602;28;20215;-65
2022/07/10 04:49:48;;;;;;;1.33;0.90;;;;;;;;;;5026111;28;20250;-65
2022/07/10 04:52:18;;;;;;;1.53;0.97;;;;;;;;;;5032365;28;20203;-64
2022/07/10 04:54:49;;;;;;;0.73;0.70;;;;;;;;;;5030486;28;20205;-64
2022/07/10 04:57:19;;;;;;;0.93;0.70;;;;;;;;;;5027056;28;20219;-65
2022/07/10 04:59:49;;;;;;;1.43;1.00;;;;;;;;;;5025456;28;20210;-66
2022/07/10 05:02:20;;;;;;;1.30;0.60;;;;;;;;;;5025516;28;20708;-64
2022/07/10 05:04:53;;;;;;;1.40;0.70;;;;;;;;;;5011079;28;20616;-64
2022/07/10 05:07:22;;;;;;;1.60;0.60;;;;;;;;;;5023139;28;20265;-64
2022/07/10 05:09:54;;;;;;;0.87;0.60;;;;;;;;;;5021681;28;20601;-63
2022/07/10 05:12:25;;;;;;;1.33;0.80;;;;;;;;;;5031344;28;20200;-64
2022/07/10 05:14:59;;;;;;;0.93;0.77;;;;;;;;;;5045664;28;20198;-64
2022/07/10 05:17:31;;;;;;;0.77;0.70;;;;;;;;;;5024448;28;20214;-65
2022/07/10 05:20:20;;;;;;;0.80;0.73;;;;;;;;;;5022631;28;20191;-64
2022/07/10 05:22:53;;;;;;;1.20;0.90;;;;;;;;;;5031896;28;20254;-64
2022/07/10 05:25:26;;;;;;;0.93;0.63;;;;;;;;;;5022490;28;20199;-66
2022/07/10 05:28:14;;;;;;;1.53;0.60;;;;;;;;;;5011025;28;20222;-66
2022/07/10 05:30:53;;;;;;;1.10;0.90;;;;;;;;;;5030074;28;20218;-66
2022/07/10 05:33:32;;;;;;;1.30;0.80;;;;;;;;;;5031924;28;20249;-66
2022/07/10 05:36:02;;;;;;;1.10;0.70;;;;;;;;;;5036884;28;20261;-66
2022/07/10 05:38:45;;;;;;;0.77;0.60;;;;;;;;;;5028998;28;20206;-65
2022/07/10 05:41:13;;;;;;;1.53;0.80;;;;;;;;;;5026479;28;20203;-64
2022/07/10 05:43:44;;;;;;;1.23;0.90;;;;;;;;;;5023687;28;20241;-64
2022/07/10 05:46:13;;;;;;;1.70;0.70;;;;;;;;;;5033955;28;20234;-66
2022/07/10 05:48:46;;;;;;;1.57;1.03;;;;;;;;;;5034366;28;20234;-66
2022/07/10 05:51:22;;;;;;;1.00;0.90;;;;;;;;;;5031594;28;20222;-64
2022/07/10 05:54:02;;;;;;;1.33;0.90;;;;;;;;;;5014692;28;20199;-64
2022/07/10 05:56:35;;;;;;;1.07;0.70;;;;;;;;;;5037296;28;20225;-66
2022/07/10 05:59:05;;;;;;;1.23;0.70;;;;;;;;;;5026066;28;20246;-66
2022/07/10 06:01:35;;;;;;;0.70;0.70;;;;;;;;;;5032916;28;20206;-64
2022/07/10 06:04:05;;;;;;;1.03;0.70;;;;;;;;;;5031359;28;20705;-64
2022/07/10 06:06:35;;;;;;;0.80;0.80;;;;;;;;;;4983113;28;20640;-64
2022/07/10 06:09:04;;;;;;;2.20;0.67;;;;;;;;;;5037655;28;20206;-64
2022/07/10 06:11:35;;;;;;;1.17;0.80;;;;;;;;;;5038049;28;20202;-64
2022/07/10 06:14:07;;;;;;;0.70;0.60;;;;;;;;;;5048564;28;20809;-64
2022/07/10 06:16:37;;;;;;;0.90;0.70;;;;;;;;;;5028346;28;20230;-65
2022/07/10 06:19:10;;;;;;;1.43;0.70;;;;;;;;;;5036496;28;20198;-66
2022/07/10 06:21:44;;;;;;;0.70;0.70;;;;;;;;;;5006124;28;20199;-64
2022/07/10 06:24:12;;;;;;;0.97;0.67;;;;;;;;;;5031973;28;20205;-64
2022/07/10 06:26:44;;;;;;;0.93;0.70;;;;;;;;;;5037656;28;20624;-64
2022/07/10 06:29:17;;;;;;;0.93;0.63;;;;;;;;;;5041566;28;20219;-64
2022/07/10 06:31:47;;;;;;;0.80;0.80;;;;;;;;;;5015326;28;20198;-64
2022/07/10 06:34:16;;;;;;;1.00;0.80;;;;;;;;;;5012753;28;20496;-64
2022/07/10 06:36:48;;;;;;;1.23;0.70;;;;;;;;;;5046313;28;20788;-64
2022/07/10 06:39:25;;;;;;;2.00;0.63;;;;;;;;;;5031046;28;20599;-64
2022/07/10 06:41:57;;;;;;;2.07;0.80;;;;;;;;;;5022917;28;20273;-66
2022/07/10 06:44:25;;;;;;;1.17;0.90;;;;;;;;;;5028974;28;20549;-67
2022/07/10 06:49:48;;;;;;;1.17;0.80;;;;;;;;;;5024516;28;20195;-63
2022/07/10 06:52:22;;;;;;;0.90;0.70;;;;;;;;;;5027999;28;20187;-65
2022/07/10 06:54:56;;;;;;;1.07;0.80;;;;;;;;;;5028357;28;20226;-65
2022/07/10 06:57:31;;;;;;;1.73;0.70;;;;;;;;;;5028205;28;20198;-63
2022/07/10 07:00:11;;;;;;;1.57;0.90;;;;;;;;;;5028036;28;20203;-64
2022/07/10 07:02:43;;;;;;;0.77;0.70;;;;;;;;;;5026568;28;20211;-64
2022/07/10 07:05:18;;;;;;;1.50;0.77;;;;;;;;;;5030796;28;20228;-65
2022/07/10 07:07:48;;;;;;;1.27;0.90;;;;;;;;;;4996142;28;20203;-65
2022/07/10 07:10:17;;;;;;;1.10;0.87;;;;;;;;;;5025753;28;20230;-66
2022/07/10 07:12:53;;;;;;;1.17;0.80;;;;;;;;;;5011040;28;20629;-66
2022/07/10 07:15:24;;;;;;;0.90;0.80;;;;;;;;;;5008986;28;20195;-64
2022/07/10 07:18:08;;;;;;;1.43;0.87;;;;;;;;;;5031987;28;20595;-64
2022/07/10 07:23:40;;;;;;;1.40;1.07;;;;;;;;;;4986694;28;20229;-64
2022/07/10 07:26:12;;;;;;;1.57;0.70;;;;;;;;;;5029346;28;20202;-65
2022/07/10 07:28:44;;;;;;;2.57;0.90;;;;;;;;;;5012821;28;20179;-65
2022/07/10 07:31:17;;;;;;;0.70;0.60;;;;;;;;;;5026463;28;20231;-66
2022/07/10 07:33:48;;;;;;;2.50;0.80;;;;;;;;;;5023671;28;20210;-66
2022/07/10 07:36:18;;;;;;;1.20;0.90;;;;;;;;;;5028316;28;20199;-65
2022/07/10 07:38:52;;;;;;;1.63;0.90;;;;;;;;;;5027697;28;20195;-66
2022/07/10 07:41:23;;;;;;;1.30;0.77;;;;;;;;;;5029351;28;20187;-66
2022/07/10 07:43:57;;;;;;;1.40;0.77;;;;;;;;;;5035779;28;20564;-65
2022/07/10 07:46:28;;;;;;;1.63;0.90;;;;;;;;;;5024946;28;20220;-65
2022/07/10 07:49:01;;;;;;;1.13;0.90;;;;;;;;;;5013708;28;20206;-66
2022/07/10 07:51:35;;;;;;;1.40;0.77;;;;;;;;;;5028924;28;20222;-64
2022/07/10 07:54:05;;;;;;;1.97;0.80;;;;;;;;;;5027190;28;20209;-64
2022/07/10 07:56:35;;;;;;;1.60;0.90;;;;;;;;;;5026405;28;20203;-65
2022/07/10 07:59:08;;;;;;;1.03;0.80;;;;;;;;;;5023472;28;20226;-65
2022/07/10 08:01:40;;;;;;;1.20;0.90;;;;;;;;;;5026571;28;20211;-64
2022/07/10 08:04:12;;;;;;;2.13;0.83;;;;;;;;;;5009473;28;20202;-64
2022/07/10 08:06:44;;;;;;;1.63;0.80;;;;;;;;;;5024817;28;20207;-64
2022/07/10 08:09:18;;;;;;;1.83;0.90;;;;;;;;;;5024264;28;20203;-64
2022/07/10 08:11:48;;;;;;;2.03;1.17;;;;;;;;;;5028040;28;20280;-64
2022/07/10 08:14:18;;;;;;;2.40;0.97;;;;;;;;;;5029973;28;20193;-64
2022/07/10 08:16:50;;;;;;;3.00;1.30;;;;;;;;;;5028735;28;20544;-69
2022/07/10 08:19:22;;;;;;;4.20;1.47;;;;;;;;;;5024313;28;20206;-66
2022/07/10 08:21:53;;;;;;;4.73;1.70;;;;;;;;;;5024133;28;20766;-69
2022/07/10 08:24:26;;;;;;;3.47;1.70;;;;;;;;;;5004509;28;20199;-68
2022/07/10 08:27:08;;;;;;;4.27;2.00;;;;;;;;;;5012182;28;20292;-72
2022/07/10 08:29:45;;;;;;;4.60;1.70;;;;;;;;;;5032902;28;20621;-72
2022/07/10 08:32:13;;;;;;;5.10;1.70;;;;;;;;;;5018806;28;20203;-67
2022/07/10 08:34:47;;;;;;;3.93;1.87;;;;;;;;;;5023819;28;20207;-69
2022/07/10 08:37:41;;;;;;;5.97;2.17;;;;;;;;;;5025913;28;20348;-71
2022/07/10 08:40:15;;;;;;;6.10;1.77;;;;;;;;;;5027642;28;20851;-70
2022/07/10 08:42:47;;;;;;;3.73;1.50;;;;;;;;;;5028521;28;20228;-71
2022/07/10 08:45:16;;;;;;;5.43;1.80;;;;;;;;;;5025639;28;20659;-69
2022/07/10 08:47:44;;;;;;;3.83;1.83;;;;;;;;;;5028568;28;20211;-70
2022/07/10 08:50:20;;;;;;;8.87;1.80;;;;;;;;;;5031418;28;20214;-68
2022/07/10 08:53:00;;;;;;;6.57;1.70;;;;;;;;;;5028545;28;20215;-70
2022/07/10 08:55:34;;;;;;;4.30;1.80;;;;;;;;;;5038882;28;20198;-64
2022/07/10 08:58:10;;;;;;;5.30;1.70;;;;;;;;;;4994931;28;20221;-64
2022/07/10 09:00:39;;;;;;;5.10;2.13;;;;;;;;;;5022849;28;20195;-65
2022/07/10 09:03:13;;;;;;;8.13;2.10;;;;;;;;;;5028717;28;20215;-65
2022/07/10 09:05:41;;;;;;;7.87;2.03;;;;;;;;;;5015133;28;20210;-65
2022/07/10 09:08:31;;;;;;;5.37;2.10;;;;;;;;;;5027511;28;20623;-65
2022/07/10 09:11:23;;;;;;;11.20;2.67;;;;;;;;;;5020323;28;20246;-67
2022/07/10 09:13:55;;;;;;;11.73;2.70;;;;;;;;;;5029761;28;20201;-67
2022/07/10 09:16:29;;;;;;;9.03;2.50;;;;;;;;;;5032267;28;20191;-68
2022/07/10 09:19:10;;;;;;;8.27;2.23;;;;;;;;;;5031239;28;20712;-67
2022/07/10 09:22:05;;;;;;;7.70;2.73;;;;;;;;;;5025402;28;20233;-71
2022/07/10 09:24:59;;;;;;;3.97;1.90;;;;;;;;;;5033442;28;20237;-71
2022/07/10 09:27:32;;;;;;;9.77;2.40;;;;;;;;;;5028224;28;20315;-67
2022/07/10 09:30:06;;;;;;;8.30;2.33;;;;;;;;;;4996948;28;20214;-68
2022/07/10 09:32:41;;;;;;;9.80;2.83;;;;;;;;;;5029374;28;20257;-68
2022/07/10 09:37:59;;;;;;;4.23;1.80;;;;;;;;;;5030748;28;20198;-66
2022/07/10 09:40:35;;;;;;;6.23;2.40;;;;;;;;;;5031672;28;20648;-65
2022/07/10 09:43:04;;;;;;;7.27;2.23;;;;;;;;;;5029641;28;20223;-66
2022/07/10 09:45:35;;;;;;;3.27;1.80;;;;;;;;;;5025410;28;20195;-67
2022/07/10 09:48:07;;;;;;;5.30;2.10;;;;;;;;;;5011049;28;20223;-66
2022/07/10 09:50:48;;;;;;;6.20;2.10;;;;;;;;;;4999427;28;20295;-69
2022/07/10 09:53:18;;;;;;;8.20;2.13;;;;;;;;;;5026544;28;20628;-72
2022/07/10 09:55:47;;;;;;;4.33;2.20;;;;;;;;;;5016639;28;20277;-72
2022/07/10 09:58:22;;;;;;;5.07;2.43;;;;;;;;;;5027459;28;20270;-68
2022/07/10 10:01:04;;;;;;;7.17;2.23;;;;;;;;;;5043513;28;20194;-68
2022/07/10 10:03:37;;;;;;;5.53;1.93;;;;;;;;;;5040335;28;20235;-68
2022/07/10 10:06:16;;;;;;;4.40;1.83;;;;;;;;;;5032420;28;20202;-68
2022/07/10 10:09:02;;;;;;;6.97;2.43;;;;;;;;;;5013263;28;20234;-68
2022/07/10 10:11:40;;;;;;;8.23;2.70;;;;;;;;;;5034519;28;20237;-70
2022/07/10 10:14:08;;;;;;;4.00;1.90;;;;;;;;;;5037061;28;20215;-68
2022/07/10 10:16:39;;;;;;;4.93;2.00;;;;;;;;;;5015928;28;20191;-64
2022/07/10 10:22:16;;;;;;;4.40;1.87;;;;;;;;;;5010176;28;20663;-69
2022/07/10 10:24:52;;;;;;;4.47;1.93;;;;;;;;;;5037677;28;20195;-66
2022/07/10 10:27:25;;;;;;;5.10;2.10;;;;;;;;;;5027800;28;20198;-66
2022/07/10 10:29:55;;;;;;;9.13;2.20;;;;;;;;;;5007185;28;20219;-66
2022/07/10 10:32:28;;;;;;;4.07;1.87;;;;;;;;;;5045385;28;20214;-66
2022/07/10 10:34:58;;;;;;;5.17;1.90;;;;;;;;;;5025519;28;20222;-66
2022/07/10 10:37:43;;;;;;;3.87;1.70;;;;;;;;;;5027794;28;20199;-64
2022/07/10 10:40:31;;;;;;;3.77;2.00;;;;;;;;;;5025760;28;20680;-64
2022/07/10 10:43:20;;;;;;;4.70;1.97;;;;;;;;;;5005873;28;20257;-64
2022/07/10 10:45:53;;;;;;;4.67;1.53;;;;;;;;;;5025820;28;20222;-65
2022/07/10 10:48:25;;;;;;;4.57;1.77;;;;;;;;;;5012574;28;20543;-65
2022/07/10 10:51:08;;;;;;;4.17;1.77;;;;;;;;;;5027681;28;20241;-64
2022/07/10 10:53:37;;;;;;;3.50;1.93;;;;;;;;;;5010744;28;20199;-64
2022/07/10 10:56:07;;;;;;;2.70;1.73;;;;;;;;;;5013324;28;20195;-64
2022/07/10 10:58:43;;;;;;;3.47;1.67;;;;;;;;;;5025520;28;20203;-64
2022/07/10 11:01:20;;;;;;;3.13;1.70;;;;;;;;;;5014127;28;20195;-62
2022/07/10 11:04:08;;;;;;;3.90;1.90;;;;;;;;;;5028357;28;20214;-62
2022/07/10 11:06:47;;;;;;;3.73;1.77;;;;;;;;;;5032551;28;20202;-63
2022/07/10 11:09:29;;;;;;;4.70;1.90;;;;;;;;;;5032240;28;20194;-63
2022/07/10 11:12:08;;;;;;;4.87;2.30;;;;;;;;;;5029280;28;20241;-64
2022/07/10 11:14:47;;;;;;;4.27;1.93;;;;;;;;;;5024591;28;20198;-65
2022/07/10 11:17:28;;;;;;;4.27;1.90;;;;;;;;;;5019367;28;20659;-63
2022/07/10 11:20:05;;;;;;;3.10;2.00;;;;;;;;;;5011299;28;20537;-63
2022/07/10 11:22:48;;;;;;;3.05;1.75;;;;;;;;;;5028466;28;20457;-68
2022/07/10 11:25:45;;;;;;;3.80;1.90;;;;;;;;;;5020071;28;20253;-67
2022/07/10 11:28:25;;;;;;;2.53;1.90;;;;;;;;;;5024788;28;20239;-69
2022/07/10 11:30:59;;;;;;;4.57;2.40;;;;;;;;;;5024200;28;20416;-69
2022/07/10 11:33:30;;;;;;;5.27;2.13;;;;;;;;;;4984751;28;20290;-70
2022/07/10 11:36:10;;;;;;;2.90;1.80;;;;;;;;;;5033284;28;20629;-67
2022/07/10 11:38:38;;;;;;;4.70;2.50;;;;;;;;;;5009408;28;20194;-67
2022/07/10 11:41:22;;;;;;;4.70;2.00;;;;;;;;;;5029242;28;20307;-67
2022/07/10 11:43:53;;;;;;;3.40;2.13;;;;;;;;;;5025963;28;20242;-68
2022/07/10 11:46:28;;;;;;;3.60;2.03;;;;;;;;;;5023527;28;20269;-66
2022/07/10 11:49:00;;;;;;;3.17;1.77;;;;;;;;;;5035458;28;20197;-70
2022/07/10 11:51:38;;;;;;;8.03;1.90;;;;;;;;;;5017029;28;20874;-69
2022/07/10 11:54:15;;;;;;;2.57;1.60;;;;;;;;;;5030346;28;20186;-72
2022/07/10 11:56:52;;;;;;;4.10;1.90;;;;;;;;;;5001349;28;20600;-68
2022/07/10 11:59:29;;;;;;;4.37;1.90;;;;;;;;;;5030410;28;20684;-66
2022/07/10 12:01:57;;;;;;;3.77;1.70;;;;;;;;;;5034819;28;20195;-68
2022/07/10 12:04:40;;;;;;;2.80;1.63;;;;;;;;;;5009127;28;20795;-66
2022/07/10 12:07:10;;;;;;;5.13;1.50;;;;;;;;;;5020145;28;20217;-67
2022/07/10 12:09:57;;;;;;;2.80;1.70;;;;;;;;;;5024333;28;20227;-66
2022/07/10 12:12:28;;;;;;;2.30;1.70;;;;;;;;;;5008403;28;20223;-70
2022/07/10 12:14:59;;;;;;;2.50;1.70;;;;;;;;;;5031950;28;20210;-70
2022/07/10 12:17:34;;;;;;;2.87;1.60;;;;;;;;;;5028757;28;20202;-68
2022/07/10 12:20:06;;;;;;;3.43;1.63;;;;;;;;;;5011626;28;20191;-68
2022/07/10 12:22:37;;;;;;;2.60;1.40;;;;;;;;;;5034625;28;20240;-67
2022/07/10 12:25:09;;;;;;;4.20;2.10;;;;;;;;;;4989242;28;20198;-68
2022/07/10 12:27:42;;;;;;;5.17;2.00;;;;;;;;;;5025493;28;20613;-69
2022/07/10 12:30:21;;;;;;;4.90;1.67;;;;;;;;;;5012250;28;20584;-65
2022/07/10 12:32:51;;;;;;;3.37;1.63;;;;;;;;;;5024291;28;20227;-67
2022/07/10 12:35:26;;;;;;;3.07;1.50;;;;;;;;;;5004804;28;20672;-68
2022/07/10 12:37:58;;;;;;;2.60;2.00;;;;;;;;;;5026308;28;20202;-67
2022/07/10 12:40:33;;;;;;;2.47;1.57;;;;;;;;;;5026934;28;20737;-68
2022/07/10 12:43:06;;;;;;;3.13;1.67;;;;;;;;;;5011254;28;20202;-69
2022/07/10 12:45:42;;;;;;;3.27;1.57;;;;;;;;;;5023467;28;20218;-73
2022/07/10 12:48:26;;;;;;;5.13;1.70;;;;;;;;;;5027088;28;20214;-67
2022/07/10 12:50:57;;;;;;;4.87;1.80;;;;;;;;;;5039313;28;20225;-70
2022/07/10 12:53:28;;;;;;;3.13;1.47;;;;;;;;;;5031204;28;20203;-61
2022/07/10 12:55:59;;;;;;;5.50;1.90;;;;;;;;;;5028745;28;20538;-62
2022/07/10 12:58:33;;;;;;;3.20;1.50;;;;;;;;;;5027943;28;20389;-61
2022/07/10 13:01:10;;;;;;;3.07;1.60;;;;;;;;;;5014718;28;20242;-63
2022/07/10 13:03:42;;;;;;;3.03;1.50;;;;;;;;;;5032773;28;20647;-61
2022/07/10 13:06:35;;;;;;;2.47;1.37;;;;;;;;;;5025915;28;20659;-63
2022/07/10 13:09:25;;;;;;;3.13;1.70;;;;;;;;;;5029401;28;20258;-64
2022/07/10 13:11:56;;;;;;;2.73;1.40;;;;;;;;;;5020896;28;20242;-63
2022/07/10 13:14:29;;;;;;;2.17;1.30;;;;;;;;;;5018555;28;20202;-63
2022/07/10 13:17:01;;;;;;;1.70;1.23;;;;;;;;;;5011943;28;20208;-61
2022/07/10 13:19:31;;;;;;;3.83;1.80;;;;;;;;;;4988251;28;20176;-61
2022/07/10 13:22:03;;;;;;;2.10;1.20;;;;;;;;;;5029215;28;20203;-64
2022/07/10 13:24:33;;;;;;;2.83;1.73;;;;;;;;;;5035874;28;20515;-64
2022/07/10 13:27:05;;;;;;;1.57;1.23;;;;;;;;;;5015216;28;20199;-61
2022/07/10 13:29:36;;;;;;;2.60;1.50;;;;;;;;;;5040552;28;20194;-61
2022/07/10 13:32:06;;;;;;;2.13;1.20;;;;;;;;;;5029733;28;20250;-61
2022/07/10 13:34:37;;;;;;;1.87;1.23;;;;;;;;;;5024884;28;20211;-61
2022/07/10 13:37:13;;;;;;;2.83;1.27;;;;;;;;;;5031647;28;20556;-61
2022/07/10 13:39:55;;;;;;;4.23;1.50;;;;;;;;;;5032367;28;20209;-61
2022/07/10 13:42:44;;;;;;;3.33;1.50;;;;;;;;;;5034458;28;20190;-61
2022/07/10 13:45:12;;;;;;;3.77;1.33;;;;;;;;;;5042177;28;20238;-61
2022/07/10 13:47:42;;;;;;;3.57;1.47;;;;;;;;;;5025169;28;20214;-62
2022/07/10 13:50:11;;;;;;;1.93;1.30;;;;;;;;;;5030552;28;20257;-61
2022/07/10 13:52:44;;;;;;;2.57;1.13;;;;;;;;;;5012605;28;20214;-61
2022/07/10 13:55:12;;;;;;;2.83;1.40;;;;;;;;;;5032802;28;20223;-63
2022/07/10 13:57:39;;;;;;;2.50;1.50;;;;;;;;;;5029424;28;20663;-64
2022/07/10 14:00:11;;;;;;;2.97;1.23;;;;;;;;;;5041275;28;20199;-62
2022/07/10 14:02:43;;;;;;;2.23;1.30;;;;;;;;;;5029503;28;20286;-61
2022/07/10 14:05:14;;;;;;;2.27;1.30;;;;;;;;;;5024947;28;20195;-61
2022/07/10 14:07:46;;;;;;;3.67;1.50;;;;;;;;;;5030358;28;20258;-61
2022/07/10 14:10:21;;;;;;;6.33;2.77;;;;;;;;;;5030516;28;20561;-61
2022/07/10 14:12:57;;;;;;;4.20;2.80;;;;;;;;;;5031668;28;20215;-62
2022/07/10 14:15:28;;;;;;;3.47;2.30;;;;;;;;;;5024476;28;20531;-61
2022/07/10 14:17:59;;;;;;;2.83;1.87;;;;;;;;;;5029594;28;20207;-62
2022/07/10 14:23:19;;;;;;;2.27;1.30;;;;;;;;;;5026404;28;20632;-63
2022/07/10 14:25:49;;;;;;;2.07;1.20;;;;;;;;;;5030218;28;20640;-64
2022/07/10 14:28:20;;;;;;;2.93;1.40;;;;;;;;;;5001039;28;20190;-63
2022/07/10 14:30:51;;;;;;;2.20;1.10;;;;;;;;;;5033662;28;20206;-61
2022/07/10 14:33:24;;;;;;;2.47;1.53;;;;;;;;;;5028149;28;20585;-62
2022/07/10 14:35:55;;;;;;;4.03;1.40;;;;;;;;;;5029404;28;20664;-62
2022/07/10 14:38:39;;;;;;;3.40;1.33;;;;;;;;;;5038267;28;20261;-62
2022/07/10 14:41:11;;;;;;;4.60;1.57;;;;;;;;;;5031661;28;20191;-62
2022/07/10 14:43:39;;;;;;;2.53;1.00;;;;;;;;;;5039882;28;20247;-62
2022/07/10 14:46:12;;;;;;;2.70;1.27;;;;;;;;;;5009766;28;20633;-61
2022/07/10 14:48:44;;;;;;;3.30;1.40;;;;;;;;;;5028118;28;20245;-62
2022/07/10 14:51:13;;;;;;;3.30;1.30;;;;;;;;;;5027218;28;20942;-62
2022/07/10 14:53:43;;;;;;;3.60;1.27;;;;;;;;;;5029253;28;20195;-62
2022/07/10 14:56:20;;;;;;;2.07;1.07;;;;;;;;;;5034974;28;20256;-62
2022/07/10 14:58:52;;;;;;;2.23;1.13;;;;;;;;;;5032115;28;20242;-62
2022/07/10 15:01:43;;;;;;;2.57;1.17;;;;;;;;;;5038885;28;20199;-64
2022/07/10 15:04:14;;;;;;;2.63;1.23;;;;;;;;;;4998685;28;20269;-63
2022/07/10 15:06:44;;;;;;;2.40;1.13;;;;;;;;;;5041872;28;20225;-64
2022/07/10 15:09:19;;;;;;;2.50;1.47;;;;;;;;;;5033211;28;20221;-64
2022/07/10 15:11:54;;;;;;;2.37;0.93;;;;;;;;;;5033847;28;20223;-64
2022/07/10 15:14:27;;;;;;;4.03;1.50;;;;;;;;;;5017117;28;20290;-64
2022/07/10 15:16:57;;;;;;;3.60;1.20;;;;;;;;;;5028596;28;20201;-64
2022/07/10 15:19:29;;;;;;;1.77;1.03;;;;;;;;;;5031024;28;20257;-64
2022/07/10 15:22:02;;;;;;;4.03;1.17;;;;;;;;;;5024912;28;20258;-64
2022/07/10 15:24:33;;;;;;;2.43;1.13;;;;;;;;;;5028718;28;20211;-63
2022/07/10 15:27:08;;;;;;;2.87;1.30;;;;;;;;;;5032253;28;20210;-64
2022/07/10 15:29:40;;;;;;;2.13;1.13;;;;;;;;;;5033045;28;20211;-64
2022/07/10 15:32:12;;;;;;;3.60;1.70;;;;;;;;;;5027699;28;20297;-63
2022/07/10 15:34:45;;;;;;;2.47;1.47;;;;;;;;;;5022886;28;20223;-63
2022/07/10 15:37:16;;;;;;;3.30;1.33;;;;;;;;;;5030227;28;20609;-62
2022/07/10 15:39:52;;;;;;;2.47;1.50;;;;;;;;;;5021010;28;20195;-62